Cades, South Carolina
Current Conditions -  °F | °C
As of 7:35 AM on Tuesday 27 Jan 2015 (Local Time) from KCKI Reporting Station
Clear Clear  
Wind Chill: 30°   Ceiling: Unl
Heat Index: 34°   Visibility: 10mi
Dew Point: 32°   Wind: 5mph
Humidity: 93%   Direction: 280°W
Pressure: 29.85"   Gusts: NA
Location:  33.79°N, 79.78°W
Report Text: KCKI 271235Z AUTO 28004KT 10SM CLR 01/00 A2985 RMK AO2
Loading
Personal Weather Stations






























Interactive Weather Map New forecast layout! Learn more

10-Day Weather Forecast

Advertisements
Track Severe Weather on mobile